createdAt,value
2017-07-10T00:01:19.995Z,75.70
2017-07-10T00:03:47.607Z,75.50
2017-07-10T00:06:15.183Z,75.90
2017-07-10T00:08:42.766Z,76.00
2017-07-10T00:11:10.357Z,77.20
2017-07-10T00:13:37.934Z,77.00
2017-07-10T00:16:05.526Z,77.10
2017-07-10T00:18:33.142Z,76.70
2017-07-10T00:21:00.714Z,75.90
2017-07-10T00:23:28.345Z,76.40
2017-07-10T00:25:55.940Z,77.10
2017-07-10T00:28:23.527Z,77.00
2017-07-10T00:30:51.152Z,77.10
2017-07-10T00:33:18.735Z,77.10
2017-07-10T00:35:46.306Z,77.20
2017-07-10T00:38:13.917Z,76.10
2017-07-10T00:40:41.474Z,76.10
2017-07-10T00:43:09.047Z,76.20
2017-07-10T00:45:36.646Z,76.30
2017-07-10T00:48:04.247Z,76.60
2017-07-10T00:50:31.838Z,77.70
2017-07-10T00:52:59.412Z,77.70
2017-07-10T00:55:27.005Z,77.90
2017-07-10T00:57:54.578Z,77.50
2017-07-10T01:00:22.916Z,77.80
2017-07-10T01:02:50.485Z,77.70
2017-07-10T01:05:18.072Z,77.80
2017-07-10T01:07:45.650Z,78.10
2017-07-10T01:10:13.298Z,78.20
2017-07-10T01:12:40.881Z,78.20
2017-07-10T01:15:08.605Z,78.40
2017-07-10T01:17:36.184Z,78.10
2017-07-10T01:20:04.533Z,78.50
2017-07-10T01:22:32.106Z,78.50
2017-07-10T01:24:59.675Z,77.80
2017-07-10T01:27:27.278Z,77.70
2017-07-10T01:29:54.938Z,77.60
2017-07-10T01:32:22.508Z,77.50
2017-07-10T01:34:50.130Z,78.00
2017-07-10T01:37:18.482Z,79.20
2017-07-10T01:39:46.084Z,78.30
2017-07-10T01:42:13.711Z,78.20
2017-07-10T01:44:41.284Z,78.50
2017-07-10T01:47:08.849Z,78.70
2017-07-10T01:49:36.431Z,78.80
2017-07-10T01:52:04.027Z,79.00
2017-07-10T01:54:31.611Z,78.90
2017-07-10T01:56:59.204Z,78.80
2017-07-10T01:59:27.534Z,79.10
2017-07-10T02:01:55.132Z,78.90
2017-07-10T02:04:22.710Z,79.00
2017-07-10T02:06:50.298Z,79.20
2017-07-10T02:09:17.869Z,79.10
2017-07-10T02:11:45.451Z,79.40
2017-07-10T02:14:13.031Z,79.90
2017-07-10T02:16:40.615Z,80.20
2017-07-10T02:19:08.187Z,80.80
2017-07-10T02:21:35.756Z,80.80
2017-07-10T02:24:03.345Z,80.60
2017-07-10T02:26:30.939Z,80.70
2017-07-10T02:28:58.516Z,80.50
2017-07-10T02:31:26.086Z,80.80
2017-07-10T02:33:54.428Z,81.00
2017-07-10T02:36:22.078Z,80.90
2017-07-10T02:38:49.650Z,81.30
2017-07-10T02:41:17.247Z,81.30
2017-07-10T02:43:45.731Z,82.00
2017-07-10T02:46:13.435Z,81.90
2017-07-10T02:48:41.007Z,83.20
2017-07-10T02:51:08.581Z,84.50
2017-07-10T02:53:36.191Z,85.00
2017-07-10T02:56:03.786Z,86.70
2017-07-10T02:58:31.378Z,88.50
2017-07-10T03:00:58.954Z,90.00
2017-07-10T03:03:26.565Z,90.50
2017-07-10T03:05:54.165Z,91.40
2017-07-10T03:08:21.730Z,91.50
2017-07-10T03:10:49.310Z,92.00
2017-07-10T03:13:16.899Z,92.40
2017-07-10T03:15:44.497Z,93.00
2017-07-10T03:18:12.067Z,93.60
2017-07-10T03:20:39.690Z,93.30
2017-07-10T03:23:07.262Z,93.30
2017-07-10T03:25:34.838Z,93.60
2017-07-10T03:28:02.419Z,93.60
2017-07-10T03:30:29.990Z,94.00
2017-07-10T03:32:58.401Z,94.30
2017-07-10T03:35:25.998Z,94.30
2017-07-10T03:37:53.595Z,94.20
2017-07-10T03:40:21.954Z,93.70
2017-07-10T03:42:49.530Z,93.70
2017-07-10T03:45:17.876Z,93.40
2017-07-10T03:47:45.462Z,93.40
2017-07-10T03:50:13.819Z,93.90
2017-07-10T03:52:41.390Z,93.50
2017-07-10T03:55:08.989Z,93.30
2017-07-10T03:57:37.334Z,93.40
2017-07-10T04:00:04.886Z,93.50
2017-07-10T04:02:32.491Z,93.60
2017-07-10T04:05:00.119Z,93.80
2017-07-10T04:07:27.957Z,93.70
2017-07-10T04:09:55.522Z,94.00
2017-07-10T04:12:23.110Z,94.00
2017-07-10T04:14:50.667Z,94.20
2017-07-10T04:17:18.254Z,94.10
2017-07-10T04:19:45.915Z,94.30
2017-07-10T04:22:14.265Z,94.30
2017-07-10T04:24:41.865Z,94.30
2017-07-10T04:27:09.505Z,94.40
2017-07-10T04:29:37.076Z,94.20
2017-07-10T04:32:05.435Z,94.70
2017-07-10T04:34:33.092Z,94.20
2017-07-10T04:37:00.683Z,94.40
2017-07-10T04:39:28.297Z,94.40
2017-07-10T04:41:55.900Z,94.70
2017-07-10T04:44:23.487Z,94.70
2017-07-10T04:46:51.077Z,94.30
2017-07-10T04:49:18.663Z,94.10
2017-07-10T04:51:46.249Z,94.20
2017-07-10T04:54:13.863Z,94.10
2017-07-10T04:56:41.431Z,93.70
2017-07-10T04:59:09.022Z,93.60
2017-07-10T05:01:37.369Z,93.70
2017-07-10T05:04:04.956Z,93.60
2017-07-10T05:06:33.179Z,93.50
2017-07-10T05:09:00.762Z,93.70
2017-07-10T05:11:28.341Z,94.00
2017-07-10T05:13:55.950Z,94.10
2017-07-10T05:16:23.512Z,94.00
2017-07-10T05:18:51.086Z,94.30
2017-07-10T05:21:18.710Z,94.20
2017-07-10T05:23:46.320Z,94.20
2017-07-10T05:26:13.880Z,94.40
2017-07-10T05:28:41.479Z,94.30
2017-07-10T05:31:09.047Z,94.20
2017-07-10T05:33:36.618Z,94.40
2017-07-10T05:36:04.210Z,94.60
2017-07-10T05:38:31.843Z,94.60
2017-07-10T05:40:59.450Z,94.30
2017-07-10T05:43:27.026Z,94.20
2017-07-10T05:45:54.618Z,93.80
2017-07-10T05:48:23.164Z,94.00
2017-07-10T05:50:50.746Z,94.10
2017-07-10T05:53:18.335Z,94.10
2017-07-10T05:55:46.011Z,94.30
2017-07-10T05:58:13.574Z,94.30
2017-07-10T06:00:41.164Z,94.40
2017-07-10T06:03:08.743Z,94.60
2017-07-10T06:05:36.344Z,94.40
2017-07-10T06:08:03.911Z,94.70
2017-07-10T06:10:31.490Z,94.70
2017-07-10T06:12:59.106Z,94.20
2017-07-10T06:15:26.658Z,94.10
2017-07-10T06:17:54.255Z,94.70
2017-07-10T06:20:21.825Z,94.20
2017-07-10T06:22:49.418Z,93.60
2017-07-10T06:25:17.025Z,94.00
2017-07-10T06:27:45.372Z,93.90
2017-07-10T06:30:12.958Z,93.90
2017-07-10T06:32:40.567Z,93.60
2017-07-10T06:35:08.132Z,93.30
2017-07-10T06:37:36.584Z,93.50
2017-07-10T06:40:04.194Z,93.60
2017-07-10T06:42:31.782Z,93.60
2017-07-10T06:44:59.402Z,93.90
2017-07-10T06:47:26.988Z,93.80
2017-07-10T06:49:54.567Z,93.70
2017-07-10T06:52:22.175Z,94.00
2017-07-10T06:54:49.760Z,94.20
2017-07-10T06:57:17.337Z,94.50
2017-07-10T06:59:44.904Z,94.50
2017-07-10T07:04:46.322Z,94.30
2017-07-10T07:07:13.935Z,94.20
2017-07-10T07:09:41.505Z,94.50
2017-07-10T07:12:09.853Z,95.40
2017-07-10T07:14:37.466Z,95.10
2017-07-10T07:17:05.067Z,94.60
2017-07-10T07:19:32.643Z,94.40
2017-07-10T07:22:00.239Z,94.60
2017-07-10T07:24:28.711Z,94.20
2017-07-10T07:26:56.328Z,94.10
2017-07-10T07:29:23.919Z,94.20
2017-07-10T07:31:51.522Z,94.00
2017-07-10T07:34:19.096Z,94.10
2017-07-10T07:36:46.659Z,93.80
2017-07-10T07:39:14.332Z,94.10
2017-07-10T07:41:41.838Z,93.60
2017-07-10T07:44:09.465Z,94.00
2017-07-10T07:46:37.041Z,94.20
2017-07-10T07:49:04.634Z,94.10
2017-07-10T07:51:32.254Z,93.90
2017-07-10T07:53:59.906Z,94.00
2017-07-10T07:56:27.475Z,94.20
2017-07-10T07:58:55.071Z,94.10
2017-07-10T08:01:22.637Z,94.50
2017-07-10T08:03:50.252Z,94.50
2017-07-10T08:06:17.835Z,94.40
2017-07-10T08:08:45.428Z,94.30
2017-07-10T08:11:13.770Z,93.80
2017-07-10T08:13:41.361Z,94.10
2017-07-10T08:16:08.946Z,93.70
2017-07-10T08:18:36.526Z,93.50
2017-07-10T08:21:04.117Z,93.80
2017-07-10T08:23:31.692Z,93.40
2017-07-10T08:25:59.259Z,93.30
2017-07-10T08:28:26.852Z,93.00
2017-07-10T08:30:55.198Z,93.30
2017-07-10T08:33:22.760Z,93.30
2017-07-10T08:35:50.347Z,92.70
2017-07-10T08:38:17.919Z,92.70
2017-07-10T08:40:45.526Z,92.70
2017-07-10T08:43:13.110Z,92.20
2017-07-10T08:45:40.670Z,92.40
2017-07-10T08:48:08.251Z,92.20
2017-07-10T08:50:35.823Z,92.00
2017-07-10T08:53:03.398Z,92.20
2017-07-10T08:55:30.998Z,92.40
2017-07-10T08:57:58.563Z,92.60
2017-07-10T09:00:26.139Z,92.70
2017-07-10T09:02:53.745Z,92.60
2017-07-10T09:05:21.314Z,92.20
2017-07-10T09:07:48.969Z,92.10
2017-07-10T09:10:16.589Z,91.60
2017-07-10T09:12:44.960Z,91.50
2017-07-10T09:15:12.547Z,91.50
2017-07-10T09:17:40.157Z,90.80
2017-07-10T09:20:07.750Z,90.90
2017-07-10T09:22:35.341Z,91.10
2017-07-10T09:25:02.958Z,90.40
2017-07-10T09:27:30.576Z,90.50
2017-07-10T09:29:58.158Z,90.60
2017-07-10T09:32:25.742Z,89.70
2017-07-10T09:34:53.354Z,89.20
2017-07-10T09:37:20.931Z,88.90
2017-07-10T09:39:48.516Z,87.60
2017-07-10T09:42:16.108Z,87.80
2017-07-10T09:44:43.695Z,85.10
2017-07-10T09:47:11.349Z,85.60
2017-07-10T09:49:39.227Z,82.00
2017-07-10T09:52:06.829Z,82.40
2017-07-10T09:54:34.394Z,79.10
2017-07-10T09:57:01.995Z,77.50
2017-07-10T09:59:30.336Z,74.90
2017-07-10T10:01:57.900Z,74.80
2017-07-10T10:04:25.500Z,73.90
2017-07-10T10:06:53.841Z,68.30
2017-07-10T10:09:21.488Z,68.20
2017-07-10T10:11:49.054Z,67.80
2017-07-10T10:14:16.654Z,66.20
2017-07-10T10:16:44.997Z,65.40
2017-07-10T10:19:12.596Z,65.50
2017-07-10T10:21:41.494Z,60.90
2017-07-10T10:24:09.093Z,60.60
2017-07-10T10:26:36.724Z,60.90
2017-07-10T10:29:04.327Z,60.90
2017-07-10T10:31:31.895Z,59.20
2017-07-10T10:33:59.503Z,55.90
2017-07-10T10:36:27.083Z,55.00
2017-07-10T10:38:54.694Z,55.70
2017-07-10T10:41:22.269Z,52.40
2017-07-10T10:43:49.834Z,52.90
2017-07-10T10:46:18.207Z,53.40
2017-07-10T10:48:45.779Z,53.30
2017-07-10T10:51:13.355Z,53.40
2017-07-10T10:53:40.947Z,52.90
2017-07-10T10:56:08.514Z,54.00
2017-07-10T10:58:36.123Z,53.10
2017-07-10T11:01:04.454Z,49.40
2017-07-10T11:03:32.027Z,49.30
2017-07-10T11:05:59.666Z,51.70
2017-07-10T11:08:27.224Z,49.60
2017-07-10T11:10:54.804Z,51.20
2017-07-10T11:13:22.391Z,51.90
2017-07-10T11:15:49.998Z,53.30
2017-07-10T11:18:17.679Z,53.80
2017-07-10T11:20:45.263Z,55.00
2017-07-10T11:23:12.841Z,53.30
2017-07-10T11:25:40.451Z,54.20
2017-07-10T11:28:08.014Z,55.80
2017-07-10T11:30:35.592Z,56.60
2017-07-10T11:33:03.291Z,57.00
2017-07-10T11:35:30.869Z,56.40
2017-07-10T11:37:59.419Z,58.90
2017-07-10T11:40:27.022Z,58.20
2017-07-10T11:42:54.588Z,60.20
2017-07-10T11:45:22.167Z,59.90
2017-07-10T11:47:49.798Z,60.70
2017-07-10T11:50:17.394Z,60.40
2017-07-10T11:52:44.982Z,60.80
2017-07-10T11:55:12.567Z,59.80
2017-07-10T11:57:40.954Z,56.30
2017-07-10T12:00:09.322Z,55.20
2017-07-10T12:02:36.952Z,55.20
2017-07-10T12:05:04.554Z,55.80
2017-07-10T12:07:32.920Z,57.10
2017-07-10T12:10:01.299Z,55.30
2017-07-10T12:12:28.875Z,55.30
2017-07-10T12:14:57.233Z,52.70
2017-07-10T12:17:25.801Z,51.90
2017-07-10T12:19:53.381Z,51.40
2017-07-10T12:22:20.982Z,50.90
2017-07-10T12:24:48.550Z,51.70
2017-07-10T12:27:16.122Z,53.30
2017-07-10T12:29:43.728Z,51.70
2017-07-10T12:32:11.382Z,51.20
2017-07-10T12:34:38.987Z,50.10
2017-07-10T12:37:06.583Z,50.90
2017-07-10T12:39:34.151Z,52.70
2017-07-10T12:42:02.408Z,52.70
2017-07-10T12:44:30.539Z,51.40
2017-07-10T12:46:59.278Z,51.30
2017-07-10T12:49:26.868Z,51.30
2017-07-10T12:51:54.555Z,48.40
2017-07-10T12:54:22.917Z,47.70
2017-07-10T12:56:50.491Z,47.70
2017-07-10T12:59:18.839Z,46.00
2017-07-10T13:01:46.879Z,46.00
2017-07-10T13:04:15.278Z,49.10
2017-07-10T13:06:42.860Z,48.80
2017-07-10T13:09:10.452Z,44.10
2017-07-10T13:11:38.797Z,43.00
2017-07-10T13:14:06.436Z,42.90
2017-07-10T13:16:34.821Z,40.90
2017-07-10T13:19:02.779Z,42.00
2017-07-10T13:21:30.511Z,40.50
2017-07-10T13:23:59.131Z,41.80
2017-07-10T13:26:27.160Z,41.80
2017-07-10T13:28:55.830Z,43.30
2017-07-10T13:31:23.430Z,43.20
2017-07-10T13:33:51.929Z,43.70
2017-07-10T13:36:19.494Z,41.90
2017-07-10T13:38:47.095Z,42.00
2017-07-10T13:41:14.698Z,44.60
2017-07-10T13:43:43.156Z,42.80
2017-07-10T13:46:11.494Z,43.50
2017-07-10T13:48:39.107Z,43.30
2017-07-10T13:51:07.433Z,42.70
2017-07-10T13:53:35.042Z,42.50
2017-07-10T13:56:03.404Z,43.50
2017-07-10T13:58:30.970Z,43.50
2017-07-10T14:00:58.554Z,43.70
2017-07-10T14:03:26.925Z,43.70
2017-07-10T14:05:55.286Z,44.20
2017-07-10T14:08:22.865Z,44.10
2017-07-10T14:10:51.255Z,43.90
2017-07-10T14:13:19.683Z,45.10
2017-07-10T14:15:47.251Z,45.10
2017-07-10T14:18:14.867Z,44.20
2017-07-10T14:20:42.770Z,44.40
2017-07-10T14:23:10.373Z,46.50
2017-07-10T14:25:37.980Z,44.20
2017-07-10T14:28:05.562Z,45.30
2017-07-10T14:30:33.150Z,46.70
2017-07-10T14:33:00.730Z,45.00
2017-07-10T14:35:29.083Z,45.40
2017-07-10T14:37:56.913Z,45.40
2017-07-10T14:40:24.530Z,43.70
2017-07-10T14:42:52.886Z,45.30
2017-07-10T14:45:20.461Z,44.80
2017-07-10T14:47:48.076Z,44.20
2017-07-10T14:50:15.671Z,44.60
2017-07-10T14:52:43.231Z,42.90
2017-07-10T14:55:10.831Z,39.80
2017-07-10T14:57:39.326Z,42.00
2017-07-10T15:00:06.879Z,42.10
2017-07-10T15:02:34.455Z,39.90
2017-07-10T15:05:02.051Z,39.90
2017-07-10T15:07:29.710Z,41.00
2017-07-10T15:09:57.292Z,37.70
2017-07-10T15:12:24.888Z,37.00
2017-07-10T15:14:53.244Z,37.60
2017-07-10T15:17:21.630Z,37.70
2017-07-10T15:19:49.974Z,39.00
2017-07-10T15:22:17.541Z,38.90
2017-07-10T15:24:45.143Z,38.20
2017-07-10T15:27:12.735Z,39.70
2017-07-10T15:29:40.332Z,41.10
2017-07-10T15:32:07.919Z,40.20
2017-07-10T15:34:35.494Z,40.70
2017-07-10T15:37:03.087Z,40.50
2017-07-10T15:39:30.665Z,39.40
2017-07-10T15:41:58.243Z,41.30
2017-07-10T15:44:25.864Z,40.70
2017-07-10T15:46:53.467Z,38.90
2017-07-10T15:49:21.100Z,39.30
2017-07-10T15:51:48.703Z,40.20
2017-07-10T15:54:17.075Z,38.90
2017-07-10T15:56:44.678Z,38.70
2017-07-10T15:59:12.297Z,38.30
2017-07-10T16:01:40.657Z,39.90
2017-07-10T16:04:08.212Z,39.90
2017-07-10T16:06:35.814Z,40.90
2017-07-10T16:09:04.158Z,41.10
2017-07-10T16:11:31.726Z,41.00
2017-07-10T16:13:59.314Z,40.50
2017-07-10T16:16:26.883Z,43.10
2017-07-10T16:18:54.474Z,41.30
2017-07-10T16:21:22.083Z,41.70
2017-07-10T16:23:49.659Z,41.60
2017-07-10T16:26:17.299Z,43.00
2017-07-10T16:28:44.866Z,43.40
2017-07-10T16:31:12.529Z,43.00
2017-07-10T16:33:40.130Z,42.90
2017-07-10T16:36:07.715Z,43.10
2017-07-10T16:38:35.323Z,44.00
2017-07-10T16:41:02.985Z,44.60
2017-07-10T16:43:31.377Z,46.90
2017-07-10T16:45:59.747Z,44.40
2017-07-10T16:48:27.366Z,44.40
2017-07-10T16:50:54.930Z,45.10
2017-07-10T16:53:22.564Z,45.10
2017-07-10T16:55:50.151Z,44.50
2017-07-10T16:58:17.734Z,45.10
2017-07-10T17:00:45.343Z,45.40
2017-07-10T17:03:12.978Z,45.70
2017-07-10T17:05:41.358Z,46.70
2017-07-10T17:08:08.972Z,46.60
2017-07-10T17:10:36.544Z,46.90
2017-07-10T17:13:04.155Z,47.20
2017-07-10T17:15:32.527Z,53.80
2017-07-10T17:18:00.893Z,57.40
2017-07-10T17:20:29.321Z,66.00
2017-07-10T17:22:56.882Z,66.00
2017-07-10T17:25:24.480Z,70.80
2017-07-10T17:27:52.076Z,74.90
2017-07-10T17:30:20.460Z,81.60
2017-07-10T17:32:48.084Z,81.50
2017-07-10T17:35:15.735Z,83.10
2017-07-10T17:37:43.412Z,74.80
2017-07-10T17:40:10.983Z,82.40
2017-07-10T17:42:38.613Z,83.30
2017-07-10T17:45:06.202Z,83.90
2017-07-10T17:47:33.796Z,85.30
2017-07-10T17:50:01.388Z,87.70
2017-07-10T17:52:29.119Z,88.50
2017-07-10T17:54:56.710Z,89.00
2017-07-10T17:57:24.339Z,89.80
2017-07-10T17:59:52.005Z,90.30
2017-07-10T18:02:20.363Z,89.20
2017-07-10T18:04:47.979Z,89.10
2017-07-10T18:07:15.601Z,90.50
2017-07-10T18:09:43.277Z,90.40
2017-07-10T18:12:11.487Z,90.50
2017-07-10T18:14:39.127Z,90.70
2017-07-10T18:17:06.767Z,90.10
2017-07-10T18:19:34.386Z,90.40
2017-07-10T18:22:01.939Z,90.40
2017-07-10T18:24:29.554Z,90.50
2017-07-10T18:26:57.918Z,90.40
2017-07-10T18:29:25.495Z,90.30
2017-07-10T18:31:53.103Z,90.60
2017-07-10T18:34:20.666Z,90.30
2017-07-10T18:36:48.282Z,90.50
2017-07-10T18:39:15.859Z,90.50
2017-07-10T18:41:43.474Z,90.80
2017-07-10T18:44:11.081Z,91.10
2017-07-10T18:46:38.697Z,91.00
2017-07-10T18:49:06.284Z,91.30
2017-07-10T18:51:33.888Z,91.30
2017-07-10T18:54:01.475Z,91.20
2017-07-10T18:56:29.085Z,91.70
2017-07-10T18:58:56.675Z,91.10
2017-07-10T19:01:24.284Z,91.80
2017-07-10T19:03:51.854Z,91.20
2017-07-10T19:06:19.458Z,91.50
2017-07-10T19:08:47.109Z,91.00
2017-07-10T19:11:14.696Z,91.30
2017-07-10T19:13:42.310Z,91.30
2017-07-10T19:16:09.930Z,90.90
2017-07-10T19:18:37.515Z,90.60
2017-07-10T19:21:05.139Z,90.20
2017-07-10T19:23:32.683Z,91.30
2017-07-10T19:26:00.271Z,91.70
2017-07-10T19:28:27.893Z,91.50
2017-07-10T19:30:55.475Z,91.50
2017-07-10T19:33:23.075Z,92.10
2017-07-10T19:35:50.683Z,92.20
2017-07-10T19:38:18.275Z,92.40
2017-07-10T19:40:45.874Z,91.90
2017-07-10T19:43:14.291Z,92.00
2017-07-10T19:45:41.895Z,91.90
2017-07-10T19:48:09.519Z,92.30
2017-07-10T19:50:37.877Z,92.10
2017-07-10T19:53:05.514Z,92.10
2017-07-10T19:55:33.890Z,92.10
2017-07-10T19:58:01.524Z,92.10
2017-07-10T20:00:29.117Z,91.60
2017-07-10T20:02:57.508Z,91.90
2017-07-10T20:05:25.863Z,92.30
2017-07-10T20:07:53.467Z,92.20
2017-07-10T20:10:21.115Z,92.10
2017-07-10T20:12:48.713Z,92.30
2017-07-10T20:15:16.287Z,92.00
2017-07-10T20:17:43.880Z,91.90
2017-07-10T20:20:11.452Z,92.20
2017-07-10T20:22:39.049Z,92.20
2017-07-10T20:25:06.654Z,92.40
2017-07-10T20:27:34.256Z,92.20
2017-07-10T20:30:01.843Z,92.60
2017-07-10T20:32:29.455Z,91.90
2017-07-10T20:34:57.183Z,90.70
2017-07-10T20:37:24.747Z,90.90
2017-07-10T20:39:52.366Z,90.60
2017-07-10T20:42:19.938Z,90.60
2017-07-10T20:44:47.516Z,90.30
2017-07-10T20:47:15.115Z,90.10
2017-07-10T20:49:43.517Z,91.00
2017-07-10T20:52:11.907Z,90.70
2017-07-10T20:54:39.480Z,90.70
2017-07-10T20:57:07.070Z,90.70
2017-07-10T20:59:35.407Z,90.00
2017-07-10T21:02:03.005Z,90.10
2017-07-10T21:04:30.608Z,90.60
2017-07-10T21:06:58.941Z,89.80
2017-07-10T21:09:26.541Z,89.70
2017-07-10T21:11:54.107Z,90.00
2017-07-10T21:14:22.469Z,90.50
2017-07-10T21:16:50.073Z,90.40
2017-07-10T21:19:17.659Z,90.10
2017-07-10T21:21:45.275Z,89.60
2017-07-10T21:24:12.872Z,89.50
2017-07-10T21:26:40.668Z,90.60
2017-07-10T21:29:08.274Z,90.90
2017-07-10T21:31:35.865Z,91.40
2017-07-10T21:34:03.448Z,91.80
2017-07-10T21:36:31.024Z,92.10
2017-07-10T21:38:58.683Z,92.10
2017-07-10T21:41:26.260Z,92.10
2017-07-10T21:43:53.875Z,92.50
2017-07-10T21:46:21.506Z,92.60
2017-07-10T21:48:49.095Z,92.40
2017-07-10T21:51:16.776Z,92.10
2017-07-10T21:53:44.387Z,92.00
2017-07-10T21:56:11.987Z,91.90
2017-07-10T21:58:39.594Z,92.00
2017-07-10T22:01:07.178Z,92.20
2017-07-10T22:03:34.764Z,92.10
2017-07-10T22:06:02.334Z,92.00
2017-07-10T22:08:29.911Z,91.70
2017-07-10T22:10:57.512Z,91.70
2017-07-10T22:13:25.107Z,91.30
2017-07-10T22:15:52.717Z,91.30
2017-07-10T22:18:20.348Z,91.60
2017-07-10T22:20:47.929Z,91.80
2017-07-10T22:23:15.498Z,92.10
2017-07-10T22:25:43.104Z,91.50
2017-07-10T22:28:10.699Z,91.70
2017-07-10T22:30:38.294Z,91.20
2017-07-10T22:33:05.861Z,91.20
2017-07-10T22:35:34.224Z,91.00
2017-07-10T22:38:01.842Z,90.70
2017-07-10T22:40:29.423Z,91.00
2017-07-10T22:42:57.006Z,91.10
2017-07-10T22:45:24.612Z,91.30
2017-07-10T22:47:52.191Z,91.50
2017-07-10T22:50:19.898Z,91.10
2017-07-10T22:52:47.466Z,91.50
2017-07-10T22:55:15.035Z,91.70
2017-07-10T22:57:42.646Z,91.70
2017-07-10T23:00:10.225Z,91.20
2017-07-10T23:02:37.822Z,91.00
2017-07-10T23:05:05.438Z,90.90
2017-07-10T23:07:33.006Z,90.50
2017-07-10T23:10:00.604Z,90.50
2017-07-10T23:12:28.190Z,90.80
2017-07-10T23:14:55.787Z,91.20
2017-07-10T23:17:23.358Z,91.20
2017-07-10T23:19:50.921Z,91.60
2017-07-10T23:22:18.495Z,91.80
2017-07-10T23:24:46.078Z,91.40
2017-07-10T23:27:13.694Z,91.70
2017-07-10T23:29:41.282Z,92.00
2017-07-10T23:32:08.862Z,92.10
2017-07-10T23:34:37.265Z,92.20
2017-07-10T23:37:04.789Z,92.20
2017-07-10T23:39:33.122Z,92.20
2017-07-10T23:42:00.722Z,92.30
2017-07-10T23:44:28.341Z,92.40
2017-07-10T23:46:55.928Z,92.60
2017-07-10T23:49:23.511Z,92.70
2017-07-10T23:51:51.091Z,92.60
2017-07-10T23:54:18.663Z,92.60
2017-07-10T23:56:46.254Z,92.60
2017-07-10T23:59:13.823Z,92.70
